Latest Coastal Weather Observations for Gannett Cay

IDQ60701

Issued at 5:51 pm EST Saturday 28 May 2016 (issued every 10 minutes, with the page automatically refreshed every 10 minutes)

About coastal observations | Map of coastal stations | Coastal observations for QLD | Marine services | Other Formats
Station Details ID: 200831 Name: GANNET CAY Lat: -21.98 Lon: 152.47 Height: 2.3 m
Data from the previous 72 hours. | See also: Recent months for locations in Queensland
Date/Time
EST
Temp

°C
Wind Pressure Rain
since 9am
mm
Weather Cloud Vis
km
Sea
Height
m
Swell
Dir
 
Speed
knots
Gust
knots
hPa Trend Height
m
Period
s
Dir
28/05:30pm 24.4 W 8 10 1013.7 - - - - - - - - -
28/05:29pm 24.3 W 8 - 1013.7 - - - - - - - - -
28/05:00pm 24.4 W 7 8 1013.3 - - - - - - - - -
28/04:30pm 24.6 WSW 9 10 1013.3 - - - - - - - - -
28/04:29pm 24.5 WSW 9 - 1013.3 - - - - - - - - -
28/04:00pm 24.5 WSW 10 11 1013.0 - - - - - - - - -
28/03:30pm 24.4 SW 10 12 1012.8 - - - - - - - - -
28/03:29pm 24.4 SW 10 - 1012.9 - - - - - - - - -
28/03:00pm 24.4 SW 12 13 1012.7 - - - - - - - - -
28/02:30pm 24.7 SW 11 14 1012.7 - - - - - - - - -
28/02:29pm 24.7 SW 11 - 1012.8 - - - - - - - - -
28/02:00pm 24.9 SW 11 14 1012.6 - - - - - - - - -
28/01:30pm 25.1 SW 9 11 1012.7 - - - - - - - - -
28/01:29pm 25.2 SW 9 - 1012.8 - - - - - - - - -
28/01:00pm 25.2 SW 10 11 1012.8 - - - - - - - - -
28/12:30pm 25.3 SW 10 13 1013.1 - - - - - - - - -
28/12:29pm 25.3 SW 10 - 1013.2 - - - - - - - - -
28/12:00pm 25.6 SW 8 9 1013.5 - - - - - - - - -
28/11:30am 25.6 SSW 6 7 1013.7 - - - - - - - - -
28/11:29am 25.6 SSW 7 - 1013.8 - - - - - - - - -
28/11:00am 25.7 SSW 6 7 1014.0 - - - - - - - - -
28/10:30am 25.7 S 6 8 1014.2 - - - - - - - - -
28/10:29am 25.8 S 6 - 1014.3 - - - - - - - - -
28/10:00am 26.2 SSE 4 5 1014.4 - - - - - - - - -
28/09:30am 25.9 SSW 5 6 1014.8 - - - - - - - - -
28/09:29am 25.9 SSW 5 - 1014.9 - - - - - - - - -
28/09:00am 26.0 S 6 6 1014.9 - - - - - - - - -
28/08:30am 25.8 S 7 8 1014.7 - - - - - - - - -
28/08:29am 25.8 S 7 - 1014.8 - - - - - - - - -
28/08:00am 25.8 S 10 11 1014.7 - - - - - - - - -
28/07:30am 25.8 S 11 13 1014.3 - - - - - - - - -
28/07:29am 25.8 S 12 - 1014.4 - - - - - - - - -
28/07:00am 25.7 S 12 14 1013.9 - - - - - - - - -
28/06:30am 25.8 S 12 15 1013.6 - - - - - - - - -
28/06:29am 25.8 S 12 - 1013.7 - - - - - - - - -
28/06:00am 25.8 S 12 13 1013.3 - - - - - - - - -
28/05:30am 25.9 S 15 17 1013.0 - - - - - - - - -
28/05:29am 25.9 S 15 - 1013.1 - - - - - - - - -
28/05:00am 26.0 S 17 19 1012.7 - - - - - - - - -
28/04:30am 26.0 SSW 18 21 1012.3 - - - - - - - - -
28/04:29am 26.0 SSW 18 - 1012.3 - - - - - - - - -
28/04:00am 26.1 SSW 18 21 1011.9 - - - - - - - - -
28/03:30am 25.7 S 14 16 1011.9 - - - - - - - - -
28/03:29am 25.6 S 13 - 1012.0 - - - - - - - - -
28/03:00am 25.3 S 11 13 1011.7 - - - - - - - - -
28/02:30am 25.1 S 15 17 1011.6 - - - - - - - - -
28/02:29am 25.2 S 15 - 1011.7 - - - - - - - - -
28/02:00am 24.6 SSW 19 21 1011.6 - - - - - - - - -
28/01:30am 23.7 SSW 20 23 1011.7 - - - - - - - - -
28/01:29am 23.7 SSW 20 - 1011.8 - - - - - - - - -
28/01:11am 24.3 SW 22 29 1011.9 - - - - - - - - -
28/01:09am 25.2 W 19 29 1011.9 - - - - - - - - -
28/01:00am 25.7 W 19 22 1012.0 - - - - - - - - -
28/12:30am 25.6 NW 19 21 1011.0 - - - - - - - - -
28/12:29am 25.6 NW 19 - 1011.1 - - - - - - - - -
28/12:00am 25.6 NW 19 22 1010.7 - - - - - - - - -
 
Date/Time
EST
Temp

°C
Wind Pressure Rain
since 9am
mm
Weather Cloud Vis
km
Sea
Height
m
Swell
Dir
 
Speed
knots
Gust
knots
hPa Trend Height
m
Period
s
Dir
27/11:30pm 25.6 NW 18 21 1010.9 - - - - - - - - -
27/11:29pm 25.6 NW 18 - 1011.0 - - - - - - - - -
27/11:00pm 25.6 NNW 19 22 1011.0 - - - - - - - - -
27/10:30pm 25.7 NNW 20 24 1011.1 - - - - - - - - -
27/10:29pm 25.6 NNW 20 - 1011.2 - - - - - - - - -
27/10:00pm 25.6 NNW 19 23 1011.1 - - - - - - - - -
27/09:30pm 25.6 NNW 19 22 1011.0 - - - - - - - - -
27/09:29pm 25.7 NNW 19 - 1011.1 - - - - - - - - -
27/09:00pm 25.6 NW 21 24 1011.0 - - - - - - - - -
27/08:30pm 25.7 NNW 21 24 1011.1 - - - - - - - - -
27/08:29pm 25.7 NNW 21 - 1011.1 - - - - - - - - -
27/08:00pm 25.6 NW 20 24 1010.8 - - - - - - - - -
27/07:30pm 25.6 NNW 18 21 1010.8 - - - - - - - - -
27/07:29pm 25.7 NNW 18 - 1010.9 - - - - - - - - -
27/07:00pm 25.6 NW 19 22 1010.6 - - - - - - - - -
27/06:30pm 25.7 NW 21 24 1010.2 - - - - - - - - -
27/06:29pm 25.6 NW 20 - 1010.3 - - - - - - - - -
27/06:00pm 25.7 NW 21 24 1009.9 - - - - - - - - -
27/05:30pm 25.7 NW 20 24 1010.0 - - - - - - - - -
27/05:29pm 25.6 NW 20 - 1010.1 - - - - - - - - -
27/05:00pm 25.7 NW 21 25 1009.7 - - - - - - - - -
27/04:30pm 25.8 NW 23 25 1009.3 - - - - - - - - -
27/04:29pm 25.8 NW 23 - 1009.3 - - - - - - - - -
27/04:00pm 25.8 NW 21 25 1008.8 - - - - - - - - -
27/03:30pm 25.8 NW 22 25 1009.0 - - - - - - - - -
27/03:29pm 25.8 NW 22 - 1009.1 - - - - - - - - -
27/03:00pm 25.8 NW 24 27 1009.1 - - - - - - - - -
27/02:30pm 25.8 NW 23 26 1009.5 - - - - - - - - -
27/02:29pm 25.8 NW 22 - 1009.6 - - - - - - - - -
27/02:00pm 25.7 NW 23 26 1009.9 - - - - - - - - -
27/01:30pm 25.6 NW 23 26 1009.9 - - - - - - - - -
27/01:29pm 25.7 NW 23 - 1010.0 - - - - - - - - -
27/01:00pm 25.7 NW 22 26 1010.3 - - - - - - - - -
27/12:30pm 25.7 NW 21 24 1010.6 - - - - - - - - -
27/12:29pm 25.7 NW 21 - 1010.7 - - - - - - - - -
27/12:00pm 25.7 NW 21 24 1011.1 - - - - - - - - -
27/11:30am 25.7 NW 21 25 1011.3 - - - - - - - - -
27/11:29am 25.6 NW 21 - 1011.4 - - - - - - - - -
27/11:00am 25.7 NW 22 25 1011.8 - - - - - - - - -
27/10:30am 25.6 NNW 21 25 1012.2 - - - - - - - - -
27/10:29am 25.6 NNW 21 - 1012.3 - - - - - - - - -
27/10:00am 25.7 NW 20 23 1012.6 - - - - - - - - -
27/09:30am 25.6 NW 21 24 1013.0 - - - - - - - - -
27/09:29am 25.7 NW 21 - 1013.1 - - - - - - - - -
27/09:00am 25.6 NNW 22 24 1013.1 - - - - - - - - -
27/08:30am 25.6 NW 21 24 1012.9 - - - - - - - - -
27/08:29am 25.6 NW 20 - 1013.1 - - - - - - - - -
27/08:00am 25.5 NNW 19 23 1012.7 - - - - - - - - -
27/07:30am 25.5 NNW 20 23 1012.4 - - - - - - - - -
27/07:29am 25.5 NNW 20 - 1012.5 - - - - - - - - -
27/07:00am 25.4 NNW 19 23 1012.1 - - - - - - - - -
27/06:30am 25.3 NNW 19 22 1012.0 - - - - - - - - -
27/06:29am 25.4 NNW 19 - 1012.2 - - - - - - - - -
27/06:00am 25.2 NNW 19 22 1011.8 - - - - - - - - -
27/05:30am 25.3 NNW 19 23 1011.5 - - - - - - - - -
27/05:29am 25.3 NNW 20 - 1011.6 - - - - - - - - -
27/05:00am 25.2 NNW 19 22 1011.2 - - - - - - - - -
27/04:30am 25.2 NNW 19 22 1011.1 - - - - - - - - -
27/04:29am 25.2 NNW 19 - 1011.2 - - - - - - - - -
27/04:00am 25.2 N 19 22 1011.2 - - - - - - - - -
27/03:30am 25.2 N 19 22 1011.2 - - - - - - - - -
27/03:29am 25.1 N 19 - 1011.3 - - - - - - - - -
27/03:00am 25.0 N 19 21 1011.3 - - - - - - - - -
27/02:30am 25.0 N 19 21 1011.6 - - - - - - - - -
27/02:29am 25.1 N 19 - 1011.7 - - - - - - - - -
27/02:00am 25.0 N 17 19 1012.0 - - - - - - - - -
27/01:30am 25.0 N 17 19 1012.2 - - - - - - - - -
27/01:29am 25.0 N 17 - 1012.3 - - - - - - - - -
27/01:00am 24.9 N 16 19 1012.5 - - - - - - - - -
27/12:30am 25.0 N 17 19 1012.7 - - - - - - - - -
27/12:29am 25.0 N 17 - 1012.8 - - - - - - - - -
27/12:00am 25.0 N 17 19 1012.9 - - - - - - - - -
 
Date/Time
EST
Temp

°C
Wind Pressure Rain
since 9am
mm
Weather Cloud Vis
km
Sea
Height
m
Swell
Dir
 
Speed
knots
Gust
knots
hPa Trend Height
m
Period
s
Dir
26/11:30pm 25.1 N 17 19 1012.9 - - - - - - - - -
26/11:29pm 25.2 N 17 - 1013.0 - - - - - - - - -
26/11:00pm 24.9 NNW 15 17 1013.2 - - - - - - - - -
26/10:30pm 25.0 N 13 15 1013.7 - - - - - - - - -
26/10:29pm 25.0 NNW 13 - 1013.8 - - - - - - - - -
26/10:00pm 25.0 N 12 14 1014.1 - - - - - - - - -
26/09:30pm 25.0 N 11 13 1014.3 - - - - - - - - -
26/09:29pm 25.0 N 11 - 1014.4 - - - - - - - - -
26/09:00pm 25.1 NNW 10 12 1014.5 - - - - - - - - -
26/08:30pm 25.1 N 10 11 1014.7 - - - - - - - - -
26/08:29pm 25.1 N 10 - 1014.8 - - - - - - - - -
26/08:00pm 25.1 N 10 13 1014.7 - - - - - - - - -
26/07:30pm 25.0 N 10 11 1014.6 - - - - - - - - -
26/07:29pm 25.0 N 10 - 1014.7 - - - - - - - - -
26/07:00pm 25.0 N 10 12 1014.4 - - - - - - - - -
26/06:30pm 24.9 N 10 12 1013.9 - - - - - - - - -
26/06:29pm 24.9 N 11 - 1013.9 - - - - - - - - -
26/06:00pm 24.9 N 10 12 1013.4 - - - - - - - - -
26/05:30pm 24.8 N 12 13 1012.8 - - - - - - - - -
26/05:29pm 24.8 N 12 - 1012.9 - - - - - - - - -
26/05:00pm 24.8 N 11 14 1012.8 - - - - - - - - -
26/04:30pm 24.6 N 11 13 1012.5 - - - - - - - - -
26/04:29pm 24.6 N 11 - 1012.6 - - - - - - - - -
26/04:00pm 24.8 N 9 11 1012.7 - - - - - - - - -
26/03:30pm 24.6 N 7 8 1013.1 - - - - - - - - -
26/03:29pm 24.6 N 7 - 1013.1 - - - - - - - - -
26/03:00pm 24.7 N 6 7 1013.1 - - - - - - - - -
26/02:30pm 24.7 N 5 6 1013.6 - - - - - - - - -
26/02:29pm 24.7 N 5 - 1013.7 - - - - - - - - -
26/02:00pm 24.7 N 5 6 1013.8 - - - - - - - - -
26/01:30pm 24.7 N 5 6 1013.9 - - - - - - - - -
26/01:29pm 24.8 N 5 - 1014.0 - - - - - - - - -
26/01:00pm 24.8 N 6 7 1014.2 - - - - - - - - -
26/12:30pm 24.8 NNE 6 7 1014.4 - - - - - - - - -
26/12:29pm 24.7 NNE 6 - 1014.5 - - - - - - - - -
26/12:00pm 24.8 NNE 6 7 1014.9 - - - - - - - - -
26/11:30am 24.7 NNE 6 8 1015.4 - - - - - - - - -
26/11:29am 24.7 NNE 6 - 1015.5 - - - - - - - - -
26/11:00am 24.6 NNE 5 7 1015.9 - - - - - - - - -
26/10:30am 24.6 NE 4 6 1016.4 - - - - - - - - -
26/10:29am 24.7 NE 4 - 1016.5 - - - - - - - - -
26/10:00am 24.9 NE 4 6 1016.8 - - - - - - - - -
26/09:30am 24.7 NE 4 5 1017.1 - - - - - - - - -
26/09:29am 24.7 NE 4 - 1017.2 - - - - - - - - -
26/09:00am 25.1 ENE 4 5 1017.0 - - - - - - - - -
26/08:30am 24.9 ENE 4 5 1016.8 - - - - - - - - -
26/08:29am 25.3 ENE 4 - 1016.9 - - - - - - - - -
26/08:00am 24.8 ENE 5 5 1016.6 - - - - - - - - -
26/07:30am 25.1 NE 4 6 1016.5 - - - - - - - - -
26/07:29am 25.0 NE 4 - 1016.6 - - - - - - - - -
26/07:00am 24.7 NE 4 5 1016.3 - - - - - - - - -
26/06:30am 23.9 NE 5 7 1016.0 - - - - - - - - -
26/06:29am 23.9 NE 5 - 1016.1 - - - - - - - - -
26/06:00am 23.9 NE 6 7 1015.7 - - - - - - - - -
26/05:30am 23.9 ENE 6 7 1015.6 - - - - - - - - -
26/05:29am 23.9 NE 6 - 1015.7 - - - - - - - - -
26/05:00am 23.9 NE 6 8 1015.4 - - - - - - - - -
26/04:30am 23.9 NE 6 7 1015.4 - - - - - - - - -
26/04:29am 23.9 NE 6 - 1015.5 - - - - - - - - -
26/04:00am 24.0 NNE 5 8 1015.5 - - - - - - - - -
26/03:30am 24.0 NNE 7 8 1015.6 - - - - - - - - -
26/03:29am 24.0 NNE 7 - 1015.7 - - - - - - - - -
26/03:00am 24.0 NNE 7 8 1015.7 - - - - - - - - -
26/02:30am 24.0 NNE 7 9 1015.7 - - - - - - - - -
26/02:29am 24.1 NNE 7 - 1015.8 - - - - - - - - -
26/02:00am 24.0 NNE 8 10 1015.7 - - - - - - - - -
26/01:30am 24.1 NE 9 11 1015.7 - - - - - - - - -
26/01:29am 24.1 NE 9 - 1015.8 - - - - - - - - -
26/01:00am 24.0 NE 9 10 1016.1 - - - - - - - - -
26/12:30am 24.1 NE 5 8 1016.3 - - - - - - - - -
26/12:29am 24.0 NE 5 - 1016.4 - - - - - - - - -
26/12:00am 24.0 NE 4 6 1016.5 - - - - - - - - -
 
Date/Time
EST
Temp

°C
Wind Pressure Rain
since 9am
mm
Weather Cloud Vis
km
Sea
Height
m
Swell
Dir
 
Speed
knots
Gust
knots
hPa Trend Height
m
Period
s
Dir
25/11:30pm 24.1 ENE 5 6 1016.6 - - - - - - - - -
25/11:29pm 24.0 ENE 5 - 1016.7 - - - - - - - - -
25/11:00pm 24.1 ENE 4 5 1016.7 - - - - - - - - -
25/10:30pm 24.0 E 5 6 1017.0 - - - - - - - - -
25/10:29pm 24.0 E 5 - 1017.1 - - - - - - - - -
25/10:00pm 24.1 E 6 8 1016.9 - - - - - - - - -
25/09:30pm 24.1 E 7 9 1016.9 - - - - - - - - -
25/09:29pm 24.2 E 7 - 1017.0 - - - - - - - - -
25/09:00pm 24.1 E 6 9 1016.8 - - - - - - - - -
25/08:30pm 24.2 E 9 11 1016.5 - - - - - - - - -
25/08:29pm 24.1 E 9 - 1016.6 - - - - - - - - -
25/08:00pm 24.1 E 8 9 1016.3 - - - - - - - - -
25/07:30pm 24.2 E 7 8 1016.3 - - - - - - - - -
25/07:29pm 24.2 E 7 - 1016.4 - - - - - - - - -
25/07:00pm 24.1 E 7 8 1016.1 - - - - - - - - -
25/06:30pm 24.1 E 7 8 1015.7 - - - - - - - - -
25/06:29pm 24.1 E 7 - 1015.8 - - - - - - - - -
25/06:00pm 24.1 ESE 7 8 1015.1 - - - - - - - - -

Other Formats:

Comma delimited format used in spreadsheet applications
http://www.bom.gov.au/fwo/IDQ60701/IDQ60701.94379.axf

JavaScript Object Notation format (JSON) in row-major order
http://www.bom.gov.au/fwo/IDQ60701/IDQ60701.94379.json